Time;durP1;ratioP1;P1;durP2;ratioP2;P2;SDS_P1;SDS_P2;PMS_P1;PMS_P2;Temp;Humidity;BMP_temperature;BMP_pressure;BME280_temperature;BME280_humidity;BME280_pressure;Samples;Min_cycle;Max_cycle;Signal;HPM_P1;HPM_P2
2024/04/17 00:01:16;;;;;;;9.60;4.55;;;;;;;21.07;50.26;98156.94;5452054;26;20018;-26
2024/04/17 00:03:42;;;;;;;10.05;4.47;;;;;;;21.42;48.83;98155.19;5451760;26;20556;-26
2024/04/17 00:06:07;;;;;;;11.25;4.85;;;;;;;21.53;48.45;98160.31;5452098;26;19995;-27
2024/04/17 00:08:32;;;;;;;9.50;4.53;;;;;;;21.42;48.90;98157.88;5451707;26;19994;-26
2024/04/17 00:10:58;;;;;;;10.15;4.47;;;;;;;21.52;48.77;98159.53;5453047;26;20005;-26
2024/04/17 00:13:23;;;;;;;8.23;4.20;;;;;;;21.29;49.08;98154.16;5451760;26;20736;-26
2024/04/17 00:15:49;;;;;;;8.98;4.55;;;;;;;20.94;52.08;98161.31;5451642;26;20044;-26
2024/04/17 00:18:15;;;;;;;7.03;4.60;;;;;;;20.54;52.05;98158.50;5451372;26;19995;-26
2024/04/17 00:20:41;;;;;;;10.70;4.60;;;;;;;20.43;52.44;98141.75;5451894;26;20002;-26
2024/04/17 00:23:06;;;;;;;8.43;4.65;;;;;;;20.22;53.87;98127.13;5451558;26;20010;-26
2024/04/17 00:25:31;;;;;;;10.50;4.75;;;;;;;20.28;53.37;98115.91;5451517;26;20005;-26
2024/04/17 00:27:56;;;;;;;10.32;4.65;;;;;;;20.18;53.96;98116.16;5451008;26;19998;-26
2024/04/17 00:30:22;;;;;;;9.43;4.40;;;;;;;20.18;54.40;98116.16;5450915;26;20041;-25
2024/04/17 00:32:47;;;;;;;10.73;4.93;;;;;;;20.45;53.70;98114.44;5450707;26;20455;-26
2024/04/17 00:35:13;;;;;;;8.07;4.65;;;;;;;20.51;54.11;98116.69;5451346;26;20014;-25
2024/04/17 00:37:38;;;;;;;10.30;4.93;;;;;;;20.67;53.64;98116.34;5451300;26;20067;-26
2024/04/17 00:40:04;;;;;;;7.68;4.85;;;;;;;20.64;54.39;98117.75;5451025;26;20006;-26
2024/04/17 00:42:29;;;;;;;8.32;4.70;;;;;;;20.34;55.48;98123.91;5450579;26;20324;-25
2024/04/17 00:44:55;;;;;;;6.30;4.65;;;;;;;20.75;54.49;98125.59;5451055;26;20009;-26
2024/04/17 00:47:21;;;;;;;9.13;5.50;;;;;;;20.57;54.81;98135.50;5450732;26;20410;-25
2024/04/17 00:49:46;;;;;;;9.13;5.53;;;;;;;20.69;55.20;98139.25;5450773;26;19995;-26
2024/04/17 00:52:12;;;;;;;13.80;7.18;;;;;;;20.81;54.29;98140.56;5451534;26;20081;-24
2024/04/17 00:54:38;;;;;;;13.45;7.55;;;;;;;20.91;53.28;98124.09;5450094;26;20006;-26
2024/04/17 00:57:05;;;;;;;11.75;6.82;;;;;;;20.84;54.65;98119.13;5457468;26;20006;-25
2024/04/17 00:59:30;;;;;;;11.73;6.80;;;;;;;21.03;53.55;98127.00;5458856;26;20007;-25
2024/04/17 01:01:56;;;;;;;11.82;6.45;;;;;;;21.23;52.96;98128.38;5458760;26;20002;-26
2024/04/17 01:04:22;;;;;;;11.68;6.18;;;;;;;21.34;52.61;98128.09;5458229;26;19994;-26
2024/04/17 01:06:47;;;;;;;11.07;5.65;;;;;;;21.41;53.00;98123.00;5458259;26;20140;-27
2024/04/17 01:09:13;;;;;;;9.00;5.82;;;;;;;21.34;52.76;98115.34;5458304;26;20435;-26
2024/04/17 01:11:41;;;;;;;10.10;5.57;;;;;;;20.93;53.77;98102.16;5457753;26;20075;-26
2024/04/17 01:14:08;;;;;;;11.07;5.57;;;;;;;20.41;55.77;98098.03;5458186;26;20002;-26
2024/04/17 01:16:36;;;;;;;8.77;5.80;;;;;;;20.09;56.72;98099.09;5458027;26;20102;-27
2024/04/17 01:19:02;;;;;;;11.15;5.70;;;;;;;19.89;58.26;98093.03;5458099;26;20034;-26
2024/04/17 01:21:27;;;;;;;9.50;5.40;;;;;;;20.29;57.14;98089.69;5457986;26;19998;-26
2024/04/17 01:23:53;;;;;;;12.65;5.60;;;;;;;20.67;55.44;98081.19;5456834;26;20392;-27
2024/04/17 01:26:19;;;;;;;7.18;5.07;;;;;;;20.46;55.94;98097.09;5457509;26;19998;-26
2024/04/17 01:28:45;;;;;;;11.40;5.32;;;;;;;20.61;56.13;98095.97;5457329;26;19994;-26
2024/04/17 01:31:10;;;;;;;9.23;5.32;;;;;;;20.54;56.01;98093.66;5457072;26;20026;-25
2024/04/17 01:33:37;;;;;;;8.15;5.32;;;;;;;20.75;55.78;98087.75;5457987;26;20006;-26
2024/04/17 01:36:06;;;;;;;10.73;5.55;;;;;;;20.86;55.61;98081.75;5457744;26;20438;-26
2024/04/17 01:38:31;;;;;;;9.63;5.55;;;;;;;21.02;55.14;98081.38;5457325;26;20010;-26
2024/04/17 01:40:57;;;;;;;12.30;5.60;;;;;;;21.13;54.48;98087.28;5457665;26;19995;-26
2024/04/17 01:43:24;;;;;;;8.35;5.10;;;;;;;20.95;54.95;98086.44;5457747;26;20067;-26
2024/04/17 01:45:50;;;;;;;11.82;5.10;;;;;;;21.03;54.41;98069.44;5457475;26;20010;-27
2024/04/17 01:48:15;;;;;;;6.82;5.18;;;;;;;21.22;53.97;98066.47;5456939;26;20039;-26
2024/04/17 01:50:41;;;;;;;10.23;5.53;;;;;;;21.22;53.76;98064.56;5457355;26;20011;-26
2024/04/17 01:53:06;;;;;;;9.07;5.60;;;;;;;20.93;54.01;98067.03;5457097;26;19999;-26
2024/04/17 01:55:31;;;;;;;10.23;5.55;;;;;;;20.48;55.76;98065.97;5457483;26;20032;-26
2024/04/17 01:57:57;;;;;;;8.32;5.00;;;;;;;20.48;56.28;98062.47;5456899;26;19995;-26
2024/04/17 02:00:22;;;;;;;8.20;4.85;;;;;;;20.62;54.97;98068.63;5456637;26;20070;-27
2024/04/17 02:02:47;;;;;;;12.50;5.35;;;;;;;20.49;55.69;98074.88;5456493;26;20071;-27
2024/04/17 02:05:13;;;;;;;6.40;4.78;;;;;;;20.48;55.53;98062.47;5456492;26;20002;-28
2024/04/17 02:07:38;;;;;;;10.60;5.30;;;;;;;20.09;56.86;98064.78;5453172;26;20003;-26
2024/04/17 02:10:04;;;;;;;10.35;5.22;;;;;;;20.33;56.40;98079.06;5453400;26;20002;-27
2024/04/17 02:12:30;;;;;;;12.38;5.38;;;;;;;20.43;56.33;98076.91;5453036;26;20002;-26
2024/04/17 02:14:55;;;;;;;11.57;5.97;;;;;;;20.17;57.10;98068.63;5453092;26;20003;-27
2024/04/17 02:17:20;;;;;;;10.57;5.43;;;;;;;20.21;56.78;98064.22;5453198;26;20094;-27
2024/04/17 02:19:46;;;;;;;11.57;5.15;;;;;;;20.54;55.56;98049.63;5453644;26;19998;-27
2024/04/17 02:22:11;;;;;;;8.07;5.35;;;;;;;20.55;56.10;98054.72;5453122;26;20447;-25
2024/04/17 02:24:36;;;;;;;10.13;5.03;;;;;;;20.63;55.94;98056.69;5453110;26;20003;-26
2024/04/17 02:27:02;;;;;;;11.05;5.30;;;;;;;20.72;55.16;98047.84;5452915;26;20006;-25
2024/04/17 02:29:27;;;;;;;8.95;5.45;;;;;;;20.46;56.03;98048.47;5452725;26;20405;-25
2024/04/17 02:31:53;;;;;;;8.63;5.50;;;;;;;20.66;55.33;98064.19;5452840;26;19995;-25
2024/04/17 02:34:18;;;;;;;11.15;5.60;;;;;;;20.59;54.92;98055.69;5453279;26;19999;-25
2024/04/17 02:36:43;;;;;;;10.90;5.57;;;;;;;20.52;55.41;98052.63;5452988;26;20011;-25
2024/04/17 02:39:09;;;;;;;11.25;5.50;;;;;;;20.48;55.61;98038.16;5452948;26;19995;-25
2024/04/17 02:41:34;;;;;;;10.73;5.68;;;;;;;20.30;56.59;98048.06;5453440;26;20007;-26
2024/04/17 02:43:59;;;;;;;10.23;5.57;;;;;;;19.95;56.99;98047.03;5452751;26;20346;-25
2024/04/17 02:46:25;;;;;;;8.90;5.55;;;;;;;19.93;57.67;98050.03;5452810;26;19995;-26
2024/04/17 02:48:50;;;;;;;12.55;6.00;;;;;;;20.30;56.39;98039.97;5452875;26;20010;-26
2024/04/17 02:51:15;;;;;;;12.00;5.50;;;;;;;20.51;55.83;98034.84;5453023;26;20427;-26
2024/04/17 02:53:41;;;;;;;11.15;6.07;;;;;;;20.17;56.88;98036.22;5452463;26;20014;-26
2024/04/17 02:56:08;;;;;;;9.73;5.65;;;;;;;20.26;57.35;98029.00;5452956;26;19995;-26
2024/04/17 02:58:35;;;;;;;8.98;5.07;;;;;;;20.04;57.14;98029.78;5452249;26;20033;-26
2024/04/17 03:01:12;;;;;;;10.00;5.70;;;;;;;19.37;59.13;98018.91;5452382;26;20082;-26
2024/04/17 03:03:37;;;;;;;10.88;5.70;;;;;;;18.82;61.44;98019.75;5452962;26;20006;-26
2024/04/17 03:06:02;;;;;;;10.63;6.00;;;;;;;18.88;61.92;98003.16;5452297;26;19999;-26
2024/04/17 03:08:28;;;;;;;8.75;5.60;;;;;;;18.68;62.53;98011.63;5452575;26;20006;-26
2024/04/17 03:11:00;;;;;;;12.65;5.97;;;;;;;18.64;63.37;98024.09;5451519;26;20043;-26
2024/04/17 03:13:26;;;;;;;10.88;5.70;;;;;;;18.91;62.01;98026.03;5452667;26;20026;-27
2024/04/17 03:15:51;;;;;;;10.85;5.72;;;;;;;18.71;62.67;98022.59;5451679;26;20005;-26
2024/04/17 03:18:16;;;;;;;11.82;6.05;;;;;;;18.59;63.53;98019.59;5452429;26;20009;-26
2024/04/17 03:20:42;;;;;;;9.60;5.43;;;;;;;18.53;63.74;98026.97;5451690;26;20089;-25
2024/04/17 03:23:07;;;;;;;13.55;6.45;;;;;;;18.59;64.79;98032.28;5451923;26;20025;-26
2024/04/17 03:25:33;;;;;;;10.75;6.60;;;;;;;19.19;67.54;98040.31;5452466;26;20583;-25
2024/04/17 03:27:58;;;;;;;11.80;5.63;;;;;;;19.69;60.55;98040.28;5451925;26;19994;-25
2024/04/17 03:30:24;;;;;;;11.20;5.43;;;;;;;19.31;61.79;98023.63;5451817;26;20788;-26
2024/04/17 03:32:49;;;;;;;11.93;5.97;;;;;;;19.35;61.46;98019.22;5451894;26;20006;-26
2024/04/17 03:35:14;;;;;;;14.50;5.95;;;;;;;19.28;61.80;98027.69;5452163;26;20438;-26
2024/04/17 03:37:40;;;;;;;9.60;5.80;;;;;;;19.63;60.84;98024.50;5452632;26;20033;-27
2024/04/17 03:40:06;;;;;;;10.75;5.75;;;;;;;19.99;59.24;98032.63;5452540;26;20005;-26
2024/04/17 03:42:31;;;;;;;10.43;6.20;;;;;;;19.98;59.28;98031.03;5451916;26;20009;-26
2024/04/17 03:44:57;;;;;;;9.85;5.75;;;;;;;19.81;59.32;98031.69;5452034;26;20007;-25
2024/04/17 03:47:23;;;;;;;13.00;5.90;;;;;;;19.64;60.45;98032.31;5452494;26;20007;-27
2024/04/17 03:49:48;;;;;;;14.45;5.97;;;;;;;19.65;60.48;98022.34;5451885;26;19998;-27
2024/04/17 03:52:13;;;;;;;19.38;7.38;;;;;;;19.22;62.59;98030.81;5452297;26;19998;-26
2024/04/17 03:54:39;;;;;;;15.93;6.95;;;;;;;19.66;61.44;98023.91;5452239;26;20320;-26
2024/04/17 03:57:04;;;;;;;15.45;5.88;;;;;;;19.78;60.65;98029.63;5451859;26;20013;-26
2024/04/17 03:59:29;;;;;;;14.43;5.80;;;;;;;19.09;62.51;98030.50;5451730;26;20013;-26
2024/04/17 04:01:55;;;;;;;15.05;5.85;;;;;;;19.02;63.47;98022.06;5452896;26;19995;-27
2024/04/17 04:04:21;;;;;;;14.15;6.50;;;;;;;19.09;63.31;98019.72;5452540;26;20029;-27
2024/04/17 04:06:46;;;;;;;14.20;5.90;;;;;;;19.06;63.20;98033.81;5452154;26;20366;-27
2024/04/17 04:09:12;;;;;;;14.05;6.90;;;;;;;18.88;63.85;98032.03;5452195;26;20006;-27
2024/04/17 04:11:37;;;;;;;13.48;6.93;;;;;;;19.17;63.30;98041.69;5451411;26;20469;-26
2024/04/17 04:14:04;;;;;;;10.27;6.00;;;;;;;19.04;63.53;98022.53;5449808;26;20055;-27
2024/04/17 04:16:32;;;;;;;12.55;6.68;;;;;;;18.50;65.90;98048.31;5453225;26;20013;-26
2024/04/17 04:18:57;;;;;;;12.25;6.25;;;;;;;19.07;63.90;98046.19;5452213;26;20042;-26
2024/04/17 04:21:23;;;;;;;11.82;6.70;;;;;;;19.01;64.28;98030.44;5452150;26;19999;-27
2024/04/17 04:23:48;;;;;;;15.98;8.23;;;;;;;19.38;71.67;98028.56;5452104;26;20047;-27
2024/04/17 04:26:14;;;;;;;25.80;15.45;;;;;;;19.91;63.63;98030.66;5452087;26;20378;-26
2024/04/17 04:28:40;;;;;;;15.43;9.05;;;;;;;20.26;60.96;98034.38;5452085;26;20007;-26
2024/04/17 04:31:06;;;;;;;20.70;12.20;;;;;;;20.56;59.86;98032.03;5450882;26;20007;-26
2024/04/17 04:33:31;;;;;;;18.27;9.57;;;;;;;20.36;59.60;98021.75;5452334;26;19995;-26
2024/04/17 04:35:57;;;;;;;20.65;10.70;;;;;;;20.16;61.01;98021.13;5452266;26;20005;-27
2024/04/17 04:38:23;;;;;;;19.65;7.68;;;;;;;20.44;59.66;98026.38;5452075;26;19999;-27
2024/04/17 04:40:49;;;;;;;13.85;6.53;;;;;;;20.06;60.30;98005.19;5450720;26;20435;-27
2024/04/17 04:43:14;;;;;;;15.63;6.60;;;;;;;19.62;61.88;97998.66;5466137;26;20009;-27
2024/04/17 04:45:39;;;;;;;14.50;5.97;;;;;;;19.79;62.04;98004.22;5485711;26;20056;-27
2024/04/17 04:48:05;;;;;;;15.82;6.72;;;;;;;20.43;60.25;98005.91;5461521;26;19997;-27
2024/04/17 04:50:30;;;;;;;15.32;6.00;;;;;;;20.90;59.95;98008.94;5485464;26;20005;-27
2024/04/17 04:52:56;;;;;;;13.18;6.25;;;;;;;21.44;57.98;97998.75;5460329;26;20296;-27
2024/04/17 04:55:21;;;;;;;15.68;6.68;;;;;;;21.85;56.14;98005.59;5449102;26;19994;-27
2024/04/17 04:57:47;;;;;;;16.63;6.22;;;;;;;21.75;55.67;98000.50;5451898;26;20013;-27
2024/04/17 05:00:12;;;;;;;15.75;6.50;;;;;;;21.89;55.08;97996.84;5452232;26;20349;-26
2024/04/17 05:02:38;;;;;;;12.07;5.88;;;;;;;21.53;55.76;98011.47;5479861;26;20805;-26
2024/04/17 05:05:04;;;;;;;14.60;6.13;;;;;;;21.95;56.39;98022.63;5472640;26;20066;-26
2024/04/17 05:07:29;;;;;;;17.00;6.50;;;;;;;22.51;55.00;98009.16;5473272;26;19991;-27
2024/04/17 05:09:54;;;;;;;18.85;9.23;;;;;;;22.84;53.26;98010.13;5452062;26;20023;-26
2024/04/17 05:12:20;;;;;;;27.05;15.20;;;;;;;22.61;52.72;98001.44;5451861;26;20070;-26
2024/04/17 05:14:45;;;;;;;13.38;5.95;;;;;;;22.59;52.53;98002.91;5451735;26;20023;-26
2024/04/17 05:17:10;;;;;;;12.50;6.18;;;;;;;22.82;51.43;97998.03;5451130;26;20010;-30
2024/04/17 05:19:36;;;;;;;13.88;6.05;;;;;;;22.76;51.53;97983.84;5452096;26;20072;-26
2024/04/17 05:22:01;;;;;;;14.88;6.70;;;;;;;22.97;53.97;97996.69;5451708;26;20422;-27
2024/04/17 05:24:26;;;;;;;17.00;6.15;;;;;;;23.10;52.15;97990.25;5451131;26;19999;-27
2024/04/17 05:26:52;;;;;;;12.90;5.95;;;;;;;23.08;50.39;97980.84;5451565;26;20014;-27
2024/04/17 05:29:17;;;;;;;11.18;6.35;;;;;;;22.42;52.61;97987.50;5451888;26;19999;-25
2024/04/17 05:31:44;;;;;;;15.18;5.80;;;;;;;22.83;51.50;97991.50;5451430;26;20461;-26
2024/04/17 05:34:09;;;;;;;16.55;5.90;;;;;;;23.69;51.51;98011.06;5451022;26;19995;-27
2024/04/17 05:36:36;;;;;;;13.60;5.25;;;;;;;24.30;49.85;98013.22;5450793;26;20388;-26
2024/04/17 05:39:02;;;;;;;15.00;5.75;;;;;;;24.98;47.42;98010.06;5450689;26;20010;-27
2024/04/17 05:41:27;;;;;;;13.10;5.80;;;;;;;25.54;45.07;98003.19;5451054;26;20434;-26
2024/04/17 05:43:52;;;;;;;12.90;5.70;;;;;;;25.82;45.14;98003.22;5453413;26;20358;-28
2024/04/17 05:46:18;;;;;;;12.07;5.57;;;;;;;26.32;43.51;98006.50;5454976;26;20016;-27
2024/04/17 05:48:43;;;;;;;12.55;5.30;;;;;;;26.46;41.56;98004.13;5454629;26;20054;-27
2024/04/17 05:51:08;;;;;;;18.60;5.80;;;;;;;26.14;43.27;98008.75;5455421;26;19995;-26
2024/04/17 05:53:34;;;;;;;26.83;14.70;;;;;;;25.93;46.08;98014.41;5454447;26;19994;-27
2024/04/17 05:55:59;;;;;;;35.67;20.55;;;;;;;25.65;44.39;97996.13;5454456;26;20005;-27
2024/04/17 05:58:24;;;;;;;19.13;6.20;;;;;;;24.62;46.69;97971.94;5454577;26;20006;-26
2024/04/17 06:00:50;;;;;;;11.75;5.15;;;;;;;23.20;50.20;97948.38;5453203;26;19987;-26
2024/04/17 06:03:15;;;;;;;14.57;5.50;;;;;;;23.83;49.20;97982.88;5454712;26;19991;-27
2024/04/17 06:05:40;;;;;;;19.17;5.97;;;;;;;24.50;48.33;97997.19;5455090;26;19986;-27
2024/04/17 06:08:06;;;;;;;13.80;5.82;;;;;;;24.14;48.78;97982.38;5454423;26;20001;-28
2024/04/17 06:10:31;;;;;;;11.40;5.65;;;;;;;24.06;47.38;97983.28;5454409;26;20338;-29
2024/04/17 06:12:57;;;;;;;17.90;5.65;;;;;;;24.71;46.50;97989.78;5453934;26;20006;-28
2024/04/17 06:15:22;;;;;;;16.10;5.15;;;;;;;25.45;44.78;97978.81;5451755;26;20081;-27
2024/04/17 06:17:48;;;;;;;14.90;5.28;;;;;;;26.06;44.08;97979.72;5451953;26;20604;-27
2024/04/17 06:20:13;;;;;;;11.57;5.30;;;;;;;26.82;41.95;97993.34;5451891;26;20006;-28
2024/04/17 06:22:38;;;;;;;14.13;5.35;;;;;;;26.47;42.42;97970.28;5451943;26;19987;-27
2024/04/17 06:25:04;;;;;;;15.65;5.07;;;;;;;25.94;43.57;97984.09;5451713;26;20001;-27
2024/04/17 06:27:29;;;;;;;12.85;5.00;;;;;;;26.13;42.86;97991.63;5451999;26;19998;-26
2024/04/17 06:29:55;;;;;;;7.72;4.53;;;;;;;26.15;43.44;97969.47;5454116;26;19994;-27
2024/04/17 06:32:20;;;;;;;10.07;5.40;;;;;;;26.17;43.08;97974.56;5454369;26;20348;-30
2024/04/17 06:34:46;;;;;;;10.93;5.40;;;;;;;26.38;42.48;97974.31;5454132;26;20280;-27
2024/04/17 06:37:11;;;;;;;15.00;5.28;;;;;;;26.12;42.97;97960.06;5454227;26;20006;-29
2024/04/17 06:39:37;;;;;;;14.25;5.20;;;;;;;25.60;44.28;97950.06;5454328;26;20005;-27
2024/04/17 06:42:03;;;;;;;10.93;4.70;;;;;;;25.32;44.97;97947.31;5454405;26;20307;-28
2024/04/17 06:44:28;;;;;;;8.18;4.85;;;;;;;25.70;44.20;97944.13;5454060;26;19990;-28
2024/04/17 06:46:53;;;;;;;16.10;5.30;;;;;;;25.48;44.20;97950.13;5454360;26;20051;-28
2024/04/17 06:49:19;;;;;;;12.32;5.22;;;;;;;25.90;43.10;97939.59;5454170;26;20005;-28
2024/04/17 06:51:44;;;;;;;9.25;4.57;;;;;;;25.38;43.70;97947.88;5454920;26;19995;-26
2024/04/17 06:54:09;;;;;;;9.80;4.65;;;;;;;25.56;43.07;97952.69;5453461;26;20076;-26
2024/04/17 06:56:35;;;;;;;13.63;4.93;;;;;;;26.17;41.88;97960.94;5454126;26;20693;-27
2024/04/17 06:59:00;;;;;;;12.23;4.82;;;;;;;25.18;43.19;97945.72;5454156;26;20007;-26
2024/04/17 07:01:28;;;;;;;8.50;4.90;;;;;;;24.83;44.89;97942.72;5454083;26;20442;-27
2024/04/17 07:03:54;;;;;;;12.52;5.25;;;;;;;25.13;44.34;97939.72;5454161;26;20068;-27
2024/04/17 07:06:19;;;;;;;12.07;4.85;;;;;;;25.00;44.63;97935.44;5454057;26;20027;-28
2024/04/17 07:08:44;;;;;;;11.23;5.18;;;;;;;26.02;42.48;97927.06;5454199;26;20001;-27
2024/04/17 07:11:10;;;;;;;12.27;4.60;;;;;;;26.98;40.77;97923.19;5453572;26;20438;-32
2024/04/17 07:13:35;;;;;;;17.65;5.05;;;;;;;27.24;40.47;97938.13;5451526;26;20371;-27
2024/04/17 07:16:01;;;;;;;12.90;4.50;;;;;;;27.83;40.08;97937.00;5450554;26;20003;-27
2024/04/17 07:18:26;;;;;;;14.50;4.93;;;;;;;28.03;38.70;97929.59;5450242;26;19991;-27
2024/04/17 07:20:52;;;;;;;9.90;4.45;;;;;;;28.15;37.36;97934.09;5449892;26;20006;-27
2024/04/17 07:23:17;;;;;;;11.73;4.40;;;;;;;28.52;36.80;97936.31;5450442;26;20158;-28
2024/04/17 07:25:43;;;;;;;11.43;4.35;;;;;;;28.15;36.53;97930.56;5450619;26;20387;-28
2024/04/17 07:28:08;;;;;;;11.60;4.97;;;;;;;27.34;38.48;97925.88;5452178;26;20067;-28
2024/04/17 07:30:38;;;;;;;10.57;4.75;;;;;;;26.56;39.85;97929.22;5454231;26;19991;-28
2024/04/17 07:33:03;;;;;;;10.25;5.10;;;;;;;26.25;40.86;97921.81;5453605;26;19991;-28
2024/04/17 07:35:29;;;;;;;11.93;4.60;;;;;;;26.21;40.84;97916.28;5453319;26;20031;-26
2024/04/17 07:37:54;;;;;;;15.25;4.88;;;;;;;26.75;40.09;97911.34;5453537;26;20427;-26
2024/04/17 07:40:19;;;;;;;12.07;4.78;;;;;;;27.09;38.36;97916.00;5453236;26;20507;-27
2024/04/17 07:42:46;;;;;;;17.42;4.93;;;;;;;26.84;38.67;97895.56;5453489;26;19990;-26
2024/04/17 07:45:12;;;;;;;10.57;4.65;;;;;;;26.63;39.33;97899.38;5451924;26;20067;-26
2024/04/17 07:47:38;;;;;;;11.88;4.55;;;;;;;26.49;40.04;97897.09;5453009;26;19998;-27
2024/04/17 07:50:03;;;;;;;10.90;4.43;;;;;;;27.35;39.23;97900.16;5453325;26;19991;-28
2024/04/17 07:52:29;;;;;;;11.75;4.40;;;;;;;28.20;38.11;97905.69;5453426;26;20005;-28
2024/04/17 07:54:54;;;;;;;9.60;4.57;;;;;;;27.78;38.16;97903.72;5453245;26;20331;-28
2024/04/17 07:57:19;;;;;;;11.88;4.40;;;;;;;27.63;37.48;97891.75;5453414;26;20005;-27
2024/04/17 07:59:45;;;;;;;10.38;4.65;;;;;;;26.89;38.88;97884.38;5453212;26;20007;-28
2024/04/17 08:02:10;;;;;;;10.88;4.78;;;;;;;27.49;38.38;97882.13;5453139;26;20025;-26
2024/04/17 08:04:35;;;;;;;12.05;4.68;;;;;;;27.68;39.13;97875.03;5453316;26;19991;-28
2024/04/17 08:07:01;;;;;;;14.05;4.38;;;;;;;27.25;38.69;97874.25;5452152;26;19995;-27
2024/04/17 08:09:26;;;;;;;27.85;4.78;;;;;;;26.69;40.27;97861.72;5452971;26;19990;-28
2024/04/17 08:11:52;;;;;;;13.27;4.60;;;;;;;26.28;41.15;97861.94;5452944;26;20398;-26
2024/04/17 08:14:17;;;;;;;10.93;4.47;;;;;;;26.21;41.36;97863.69;5452982;26;19995;-27
2024/04/17 08:16:43;;;;;;;17.85;4.97;;;;;;;26.58;41.07;97857.91;5452824;26;19995;-25
2024/04/17 08:19:08;;;;;;;11.10;4.18;;;;;;;26.68;39.94;97866.38;5452945;26;20067;-27
2024/04/17 08:21:34;;;;;;;16.02;5.18;;;;;;;26.41;40.58;97861.84;5452787;26;20019;-27
2024/04/17 08:23:59;;;;;;;12.15;4.25;;;;;;;26.75;40.17;97863.03;5452729;26;19994;-27
2024/04/17 08:26:25;;;;;;;16.05;5.43;;;;;;;27.57;38.94;97857.66;5453492;26;20002;-28
2024/04/17 08:28:50;;;;;;;14.77;4.70;;;;;;;27.85;38.52;97841.81;5452974;26;20066;-26
2024/04/17 08:31:15;;;;;;;14.60;4.82;;;;;;;28.49;37.98;97841.25;5452776;26;20338;-27
2024/04/17 08:33:41;;;;;;;10.82;4.13;;;;;;;28.71;36.01;97836.91;5452684;26;20006;-27
2024/04/17 08:36:06;;;;;;;12.50;5.50;;;;;;;28.93;36.29;97831.72;5452093;26;20006;-28
2024/04/17 08:38:31;;;;;;;10.93;4.70;;;;;;;29.24;35.59;97830.53;5452908;26;19995;-27
2024/04/17 08:40:57;;;;;;;18.40;5.40;;;;;;;29.27;34.99;97823.56;5452394;26;20003;-26
2024/04/17 08:43:26;;;;;;;21.23;4.45;;;;;;;29.22;35.28;97819.19;5452356;26;19994;-27
2024/04/17 08:45:56;;;;;;;14.52;4.70;;;;;;;29.13;33.55;97819.50;5452631;26;20467;-26
2024/04/17 08:48:23;;;;;;;15.07;5.20;;;;;;;29.25;33.86;97821.19;5451965;26;20084;-28
2024/04/17 08:50:49;;;;;;;11.77;4.03;;;;;;;29.56;32.64;97822.66;5452089;26;19995;-28
2024/04/17 08:53:17;;;;;;;15.27;4.85;;;;;;;29.67;32.94;97811.81;5452281;26;20070;-28
2024/04/17 08:55:44;;;;;;;14.20;4.53;;;;;;;29.75;32.83;97805.25;5452593;26;19990;-30
2024/04/17 08:58:10;;;;;;;12.27;4.07;;;;;;;30.16;32.49;97809.91;5452377;26;20447;-29
2024/04/17 09:00:38;;;;;;;11.50;4.55;;;;;;;30.51;32.75;97811.34;5452347;26;20006;-27
2024/04/17 09:03:08;;;;;;;13.20;5.50;;;;;;;29.79;32.88;97805.28;5451798;26;19995;-27
2024/04/17 09:05:33;;;;;;;20.40;4.60;;;;;;;30.07;32.24;97798.47;5451962;26;19995;-27
2024/04/17 09:07:59;;;;;;;20.45;7.30;;;;;;;29.22;32.75;97772.63;5452388;26;20003;-26
2024/04/17 09:10:25;;;;;;;15.25;5.78;;;;;;;27.99;35.30;97764.75;5451887;26;20050;-27
2024/04/17 09:12:51;;;;;;;10.52;4.60;;;;;;;27.61;36.95;97761.00;5451460;26;20327;-27
2024/04/17 09:15:18;;;;;;;13.90;5.40;;;;;;;27.90;37.24;97785.28;5451955;26;19991;-29
2024/04/17 09:17:45;;;;;;;13.75;5.07;;;;;;;28.99;36.26;97779.00;5454494;26;20001;-26
2024/04/17 09:20:11;;;;;;;12.48;4.97;;;;;;;29.50;34.72;97752.94;5455982;26;20324;-27
2024/04/17 09:22:37;;;;;;;15.88;4.45;;;;;;;28.89;35.09;97751.53;5455157;26;20002;-27
2024/04/17 09:25:10;;;;;;;16.58;5.10;;;;;;;28.92;35.46;97748.00;5455425;26;20054;-27
2024/04/17 09:27:37;;;;;;;11.52;4.30;;;;;;;29.18;34.88;97769.84;5455537;26;20006;-27
2024/04/17 09:30:03;;;;;;;9.30;4.20;;;;;;;29.12;35.24;97763.09;5455674;26;19990;-28
2024/04/17 09:32:29;;;;;;;16.27;3.90;;;;;;;29.02;34.97;97758.31;5455181;26;20003;-25
2024/04/17 09:34:55;;;;;;;11.48;3.80;;;;;;;29.03;33.37;97759.88;5455443;26;19990;-27
2024/04/17 09:37:20;;;;;;;13.25;3.70;;;;;;;28.86;33.20;97758.50;5455888;26;19991;-27
2024/04/17 09:39:45;;;;;;;13.02;4.10;;;;;;;28.94;33.86;97749.22;5454970;26;20010;-27
2024/04/17 09:42:14;;;;;;;13.45;4.10;;;;;;;29.12;33.82;97757.63;5455242;26;19999;-29
2024/04/17 09:44:40;;;;;;;;;;;;;;;28.37;33.99;97754.75;5455741;26;19998;-28
2024/04/17 09:47:12;;;;;;;13.48;3.85;;;;;;;28.80;33.33;97755.31;5455370;26;19924;-27
2024/04/17 09:49:44;;;;;;;10.23;3.92;;;;;;;28.70;32.96;97760.66;5455536;26;20010;-27
2024/04/17 09:52:15;;;;;;;15.90;4.60;;;;;;;28.12;35.29;97751.66;5455172;26;19992;-27
2024/04/17 09:54:42;;;;;;;13.95;4.35;;;;;;;28.89;33.29;97737.84;5453591;26;20005;-27
2024/04/17 09:57:09;;;;;;;13.95;4.72;;;;;;;28.67;33.52;97737.56;5453870;26;19998;-26
2024/04/17 09:59:36;;;;;;;15.20;4.38;;;;;;;28.93;33.54;97733.19;5454617;26;20088;-33
2024/04/17 10:02:02;;;;;;;12.43;3.85;;;;;;;29.67;33.14;97743.31;5454274;26;19991;-28
2024/04/17 10:04:30;;;;;;;15.40;3.78;;;;;;;30.13;32.27;97744.84;5453847;26;19990;-26
2024/04/17 10:06:56;;;;;;;18.88;4.00;;;;;;;30.46;30.39;97729.38;5454401;26;20006;-28
2024/04/17 10:09:23;;;;;;;14.68;4.03;;;;;;;30.93;29.30;97742.13;5454724;26;19994;-27
2024/04/17 10:11:52;;;;;;;14.48;4.10;;;;;;;31.31;28.94;97739.88;5454291;26;20005;-28
2024/04/17 10:14:18;;;;;;;13.88;3.80;;;;;;;31.69;28.98;97742.28;5454811;26;20019;-26
2024/04/17 10:16:43;;;;;;;14.55;3.40;;;;;;;31.58;27.71;97725.00;5454650;26;20077;-26
2024/04/17 10:19:09;;;;;;;15.30;4.10;;;;;;;30.77;27.98;97717.75;5454493;26;20360;-28
2024/04/17 10:21:38;;;;;;;16.52;3.78;;;;;;;30.54;28.43;97720.81;5454709;26;20063;-28
2024/04/17 10:24:07;;;;;;;12.10;4.00;;;;;;;31.05;28.43;97726.47;5455035;26;20005;-29
2024/04/17 10:26:43;;;;;;;13.93;3.67;;;;;;;31.02;27.61;97721.78;5454354;26;20004;-27
2024/04/17 10:29:16;;;;;;;13.20;3.63;;;;;;;30.83;27.93;97720.91;5453071;26;20039;-26
2024/04/17 10:31:41;;;;;;;15.07;4.13;;;;;;;30.85;28.51;97717.78;5454024;26;19990;-27
2024/04/17 10:34:07;;;;;;;18.98;3.53;;;;;;;31.21;28.94;97715.16;5454121;26;19991;-28
2024/04/17 10:36:36;;;;;;;15.63;3.53;;;;;;;31.52;28.40;97719.91;5454609;26;19991;-26
2024/04/17 10:39:02;;;;;;;13.68;3.58;;;;;;;31.92;27.86;97725.38;5454512;26;20443;-27
2024/04/17 10:41:28;;;;;;;15.55;3.97;;;;;;;32.19;27.40;97728.50;5454703;26;20002;-27
2024/04/17 10:43:56;;;;;;;43.97;4.95;;;;;;;30.65;29.49;97737.28;5454490;26;20434;-28
2024/04/17 10:46:24;;;;;;;69.22;7.03;;;;;;;29.40;33.02;97731.72;5454454;26;20022;-27
2024/04/17 10:48:50;;;;;;;40.40;5.70;;;;;;;28.63;35.26;97714.84;5454384;26;20034;-28
2024/04/17 10:51:17;;;;;;;55.17;5.82;;;;;;;27.95;37.09;97728.38;5454159;26;20075;-26
2024/04/17 10:53:45;;;;;;;36.05;4.45;;;;;;;27.71;37.90;97715.09;5453871;26;20001;-28
2024/04/17 10:56:12;;;;;;;23.50;4.80;;;;;;;27.56;38.60;97717.56;5454093;26;19990;-27
2024/04/17 10:58:38;;;;;;;27.88;4.47;;;;;;;28.05;38.20;97707.81;5454747;26;20064;-26
2024/04/17 11:01:03;;;;;;;25.42;4.80;;;;;;;27.49;39.43;97698.34;5454298;26;20011;-28
2024/04/17 11:03:29;;;;;;;22.50;4.63;;;;;;;27.75;39.34;97710.47;5454223;26;20427;-28
2024/04/17 11:05:55;;;;;;;23.48;4.30;;;;;;;27.62;40.03;97701.66;5454064;26;19990;-29
2024/04/17 11:08:20;;;;;;;15.70;4.72;;;;;;;26.57;42.60;97709.09;5453520;26;19990;-26
2024/04/17 11:10:46;;;;;;;21.02;4.70;;;;;;;26.78;41.66;97704.06;5453521;26;20044;-28
2024/04/17 11:13:16;;;;;;;14.45;4.13;;;;;;;27.45;40.57;97703.72;5453879;26;20438;-27
2024/04/17 11:15:41;;;;;;;15.32;4.25;;;;;;;27.49;40.74;97718.25;5453707;26;19994;-27
2024/04/17 11:18:08;;;;;;;15.13;4.50;;;;;;;27.77;39.74;97719.88;5453761;26;20474;-26
2024/04/17 11:20:34;;;;;;;14.30;4.07;;;;;;;27.18;40.31;97711.06;5454004;26;20002;-27